Airfield :







YOU CAN JOIN US ON...

 
LOGIN :

Register | Disclaimer

   EN    FR    IT 

 









Legend :    VFR   Marginal VFR   IFR   Intensive IFR   Very Intensive IFR
Visi :
Ceiling :
>= 8 km
>= 3000ft
5 to 8 km
1000 to 3000 ft
1500m to 5 km
500 to 1000 ft
800 to 1500m
200 to 500 ft
< 800m
< 200 ft
Symbols :   Thunderstorms  Fog  Heavy snow  Heavy precipitations  Wind > 20 kt






- Airport Elevation : 83 ft


KBHB - Hancock County-Bar Harbor

CURRENT METAR :
  • 302156Z AUTO 00000KT 10SM OVC038 14/12 A3018 RMK AO2 SLP222 T01390117

EXPIRED METARs :
  • 302056Z AUTO 00000KT 10SM CLR 16/11 A3019 RMK AO2 SLP225 T01560111 56006
  • 301956Z AUTO 00000KT 10SM FEW034 16/10 A3019 RMK AO2 SLP226 T01610100

TAF KBHB
Valid from the 30 at 18:00 until the 01 at 18:00 UTC


301727Z 3018/0118 10003KT 6SM FU BKN100
FM302200 00000KT 6SM FU SCT100
FM010400 00000KT 3SM BR FEW070
FM010600 00000KT 1/2SM FG BKN002
FM011300 36003KT P6SM FEW070
KZBW FIR / North America



MET'MAP, your aeronautical weather chart ! - Copyright ORBIFLY December 2007 - Disclaimer

ORBIFLY MET'MAP TEAM :

Programming & Development : Alexandra Zaïnal
Original concept : Baudouin d'Aumeries
Technical & hardware support : Manuel Goepfert
Assistance : Marc-Olivier Méhu




SOURCES & CREDITS :

   NOAA